Blackie, Canada
Current Conditions -  °F | °C
As of 10:00 AM on Saturday 25 Oct 2014 (Local Time) from CYYC Reporting Station
Overcast Overcast  
Wind Chill: 37°   Ceiling: 6000
Heat Index: 37°   Visibility: 40mi
Dew Point: 21°   Wind: 2mph
Humidity: 52%   Direction: NA
Pressure: 29.93"   Gusts: NA
Location:  50.6°N, 113.62°W
Report Text: CYYC 251600Z VRB02KT 40SM OVC060 03/M06 A2993 RMK SC8 SLP167
Loading
Personal Weather Stations






























Interactive Weather Map
Tropical Storm Tracking
New forecast layout! Learn more

10-Day Weather Forecast

Advertisements
Track Severe Weather on mobile